Observations for BRISTOL LULSGATE, United Kingdom (EGGD)

EGGD 130850Z AUTO 08011KT 9999 BKN024 OVC030 03/02 Q1013
EGGD 130820Z AUTO 09012KT 9999 BKN025 03/02 Q1012   
EGGD 130750Z AUTO 09012KT 9999 SCT026 BKN030 02/02 Q1012
EGGD 130720Z AUTO 09012KT 9999 FEW030 02/01 Q1012   
EGGD 130650Z AUTO 09012KT 9999 SCT031 02/01 Q1012   
EGGD 130620Z AUTO 09013KT 9999 FEW033 02/01 Q1011   
EGGD 130550Z AUTO 10013KT 9999 SCT029 03/01 Q1011   
EGGD 130520Z AUTO 10013KT 9999 NCD 04/01 Q1011  
EGGD 130450Z AUTO 11015G25KT 9999 NCD 04/01 Q1011   
EGGD 130420Z AUTO 11017KT 9999 NCD 04/M00 Q1011 
EGGD 130350Z AUTO 10013KT 9999 NCD 03/M00 Q1012 
EGGD 130320Z AUTO 10016KT 9999 NCD 03/M00 Q1011 
EGGD 130250Z AUTO 10016KT 9999 NCD 03/M00 Q1011 
EGGD 130220Z AUTO 10015KT 9999 NCD 03/M01 Q1012 
EGGD 130150Z AUTO 10014KT 9999 NCD 03/M01 Q1012 
EGGD 130120Z AUTO 10012KT 9999 NCD 03/M01 Q1012 
EGGD 130050Z AUTO 10012KT 9999 NCD 03/M01 Q1013 
EGGD 130020Z AUTO 10012KT 9999 NCD 03/M01 Q1013 
EGGD 122350Z AUTO 11014KT 9999 NCD 04/M00 Q1013 
EGGD 122320Z AUTO 11013KT 9999 NCD 04/00 Q1013  
EGGD 122250Z AUTO 11014KT 9999 NCD 03/00 Q1014  
EGGD 122220Z AUTO 12011KT 9999 NCD 03/00 Q1014  
EGGD 122150Z AUTO 12014KT 9999 NCD 03/M00 Q1014 
EGGD 122120Z AUTO 12014KT 9999 NCD 04/00 Q1014  
EGGD 122050Z AUTO 12014KT 9999 NCD 04/01 Q1015  
EGGD 122020Z AUTO 12016KT 9999 NCD 04/01 Q1015  
EGGD 121950Z AUTO 11015KT 9999 FEW025 04/01 Q1015   
EGGD 121920Z AUTO 12017G27KT 9999 SCT023 05/02 Q1015
EGGD 121850Z AUTO 12015G25KT 9999 SCT019 BKN024 05/03 Q1015 
EGGD 121820Z AUTO 12015KT 9999 BKN018 05/03 Q1016   
EGGD 121750Z AUTO 12015KT 9999 NCD 05/03 Q1016  
EGGD 121720Z AUTO 11012KT 9999 NCD 05/03 Q1016  
EGGD 121650Z AUTO 11014KT 9999 NCD 05/03 Q1016  
EGGD 121620Z AUTO 12014KT 9999 FEW023 06/03 Q1016   
EGGD 121550Z AUTO 12015KT 9999 FEW022 06/03 Q1017   
EGGD 121520Z 12014KT 9999 SCT023 06/04 Q1017
EGGD 121450Z 13012KT 9999 SCT023 07/04 Q1017
EGGD 121420Z AUTO 13012KT 9999 BKN022 07/04 Q1017   
EGGD 121350Z AUTO 13013KT 9999 BKN022 07/04 Q1018   
EGGD 121320Z AUTO 13013KT 9999 BKN021 OVC026 07/05 Q1018
EGGD 121250Z AUTO 13015KT 9999 BKN020 07/05 Q1018   
EGGD 121220Z 13015KT 9999 SCT017 08/05 Q1018
EGGD 121150Z 13014KT 9999 SCT017 07/05 Q1019
EGGD 121120Z 12011KT 9999 SCT014 07/06 Q1019
EGGD 121050Z AUTO 12011KT 9999 BKN042 07/06 Q1019   
EGGD 121020Z AUTO 12009KT 9999 BKN035 06/06 Q1019   
EGGD 120950Z AUTO 10008KT 9999 SCT035 06/06 Q1019   
EGGD 120920Z AUTO 10007KT 9999 NCD 05/05 Q1019  
EGGD 120850Z AUTO 10007KT 9999 FEW031 05/05 Q1019   
EGGD 120820Z AUTO 13008KT 9999 BKN030 06/06 Q1019